Armavir, Russia

6:17 PM MSK on October 01, 2014 (GMT +0400)
Shpakovskoye | Change Station
CLOSE
Current Station
Airport
Location: Stavropol',
Elevation: 1483 ft
Nearby Weather Stations

Elev 1483 ft 45.12 °N, 42.08 °E | Updated 47 minutes ago

Light Rain Showers
Light Showers Rain
57 °F
Feels Like 57 °F
N
16
Wind Variable Wind from WNW
Gusts 22 mph

Today
High -- | Low -- °F
--% Chance of Precip.
Yesterday
High -- | Low -- °F
Precip. -- in
7:13 AM 6:56 PM
Waxing Crescent, 48% visible
Pressure 30.04 in
Visibility 6.2 miles
Clouds Mostly Cloudy 2600 ft
Overcast 10000 ft
Dew Point 52 °F
Humidity 82%
Rainfall 0.00 in
Snow Depth Not available.
UV 0 out of 12
Pollen Not available.
Air Quality Not available.
Flu Activity Not available.
METAR URMT 011330Z 30007G10MPS 9999 -SHRA BKN026CB OVC100 14/11 Q1017 NOSIG RMK QFE724 SC055

More Conditions Fewer Conditions

Pressure 30.04 in
Visibility 6.2 miles
Clouds Mostly Cloudy 2600 ft
Overcast 10000 ft
Dew Point 52 °F
Humidity 82%
Rainfall 0.00 in
Snow Depth Not available.
UV 0 out of 12
Pollen Not available.
Air Quality Not available.
Flu Activity Not available.
METAR URMT 011330Z 30007G10MPS 9999 -SHRA BKN026CB OVC100 14/11 Q1017 NOSIG RMK QFE724 SC055

More Conditions Fewer Conditions

10-Day Weather Forecast

Almanac

Astronomy

Oct. 01, 2014 Rise Set
Actual Time 7:13 AM MSK 6:56 PM MSK
Civil Twilight 6:43 AM MSK 7:25 PM MSK
Nautical Twilight 6:09 AM MSK 7:59 PM MSK
Astronomical Twilight 5:35 AM MSK 8:34 PM MSK
Moon 2:06 PM MSK 11:54 PM MSK
Length of Visible Light 12h 41m
Length of Day
11h 43m
Tomorrow will be 3m 7s shorter.
Waxing Crescent, 48% of the Moon is Illuminated
Today
Waxing Crescent
Oct 1
First Quarter
Oct 8
Full
Oct 15
Last Quarter
Oct 23
New

Today's Extremes

Country Highs Country Lows

Community

WunderPhotos

Upload Photos

1,757,952 photos uploaded!

Nearby

Snow Depth

Not available.

Earthquake Activity

City Distance Mag. Time & Date
No recent earthquake activity has been reported nearby.
Minimum magnitude displayed is 2.5.

Coastal Water Temperatures

Place Temperature
No Stations Reporting

Nearby Weather Stations